createdAt,value
2023-03-19T01:12:35.015Z,62.04
2023-03-19T01:14:05.113Z,61.61
2023-03-19T01:15:11.498Z,62.22
2023-03-19T01:16:17.596Z,61.99
2023-03-19T01:17:20.567Z,62.29
2023-03-19T02:51:31.766Z,72.03
2023-03-19T02:52:39.334Z,71.79
2023-03-19T02:53:46.287Z,71.59
2023-03-19T02:55:02.318Z,71.54
2023-03-19T02:56:10.422Z,71.53
2023-03-19T02:57:14.838Z,72.19
2023-03-19T02:58:24.221Z,71.10
2023-03-19T02:59:27.412Z,71.55
2023-03-19T03:00:30.057Z,71.81
2023-03-19T03:01:37.609Z,71.05
2023-03-19T03:02:43.215Z,71.57
2023-03-19T04:52:09.426Z,43.89
2023-03-19T04:53:13.691Z,41.92
2023-03-19T04:54:22.545Z,41.02
2023-03-19T05:03:17.794Z,34.93
2023-03-19T05:04:28.204Z,34.55
2023-03-19T05:48:02.672Z,40.38
2023-03-19T05:49:10.750Z,40.55
2023-03-19T05:50:14.384Z,41.45
2023-03-19T05:51:29.269Z,42.72
2023-03-19T05:52:37.311Z,43.09
2023-03-19T05:53:48.196Z,43.22
2023-03-19T05:55:31.245Z,44.00
2023-03-19T05:56:44.464Z,44.60
2023-03-19T05:58:11.061Z,45.23
2023-03-19T05:59:14.275Z,45.32
2023-03-19T06:00:28.493Z,46.15
2023-03-19T06:01:40.981Z,46.56
2023-03-19T06:02:52.682Z,47.11
2023-03-19T06:04:23.045Z,48.05
2023-03-19T06:05:26.954Z,48.54
2023-03-19T06:06:40.720Z,49.30
2023-03-19T06:07:46.506Z,49.30
2023-03-19T06:09:04.170Z,49.90
2023-03-19T06:10:13.885Z,51.33
2023-03-19T06:11:16.483Z,51.80
2023-03-19T06:12:49.308Z,52.10
2023-03-19T06:14:12.308Z,52.28
2023-03-19T06:15:45.810Z,52.67
2023-03-19T06:16:58.972Z,52.47
2023-03-19T06:18:04.607Z,52.48
2023-03-19T06:19:16.322Z,53.56
2023-03-19T06:21:44.186Z,54.03
2023-03-19T06:22:53.871Z,54.45
2023-03-19T06:27:52.235Z,50.30
2023-03-19T06:33:17.890Z,37.67
2023-03-19T06:34:36.324Z,36.16
2023-03-19T06:35:52.996Z,34.58
2023-03-19T06:37:17.449Z,32.43
2023-03-19T06:38:22.402Z,30.94
2023-03-19T06:41:33.610Z,33.41
2023-03-19T06:46:26.783Z,29.26
2023-03-19T06:50:35.694Z,30.19
2023-03-19T06:51:47.608Z,28.48
2023-03-19T06:54:27.254Z,28.71
2023-03-19T06:55:43.815Z,28.29
2023-03-19T07:22:43.731Z,26.62
2023-03-19T07:26:47.778Z,26.15
2023-03-19T07:27:54.866Z,25.50
2023-03-19T07:28:58.346Z,25.04
2023-03-19T07:30:13.364Z,24.66
2023-03-19T07:31:49.217Z,24.92
2023-03-19T07:32:51.642Z,25.44
2023-03-19T07:33:54.832Z,24.76
2023-03-19T07:34:56.862Z,24.61
2023-03-19T07:35:59.035Z,24.91
2023-03-19T07:37:01.545Z,24.98
2023-03-19T07:38:03.787Z,25.83
2023-03-19T07:39:06.167Z,25.26
2023-03-19T07:40:10.862Z,25.46
2023-03-19T07:41:12.916Z,25.40
2023-03-19T07:42:15.399Z,24.98
2023-03-19T07:44:55.690Z,24.33
2023-03-19T07:45:58.646Z,23.66
2023-03-19T07:47:00.921Z,24.39
2023-03-19T07:48:03.970Z,25.87
2023-03-19T07:49:06.065Z,26.37
2023-03-19T07:50:08.947Z,25.19
2023-03-19T07:51:11.052Z,25.45
2023-03-19T07:52:15.154Z,25.12
2023-03-19T07:53:17.523Z,25.62
2023-03-19T07:54:19.735Z,24.84
2023-03-19T07:55:25.233Z,26.13
2023-03-19T07:56:29.254Z,28.09
2023-03-19T07:57:35.764Z,28.07
2023-03-19T07:58:39.891Z,29.53
2023-03-19T07:59:42.463Z,29.10
2023-03-19T08:00:45.702Z,28.05
2023-03-19T08:01:48.387Z,27.88
2023-03-19T08:02:50.867Z,27.31
2023-03-19T08:03:52.965Z,27.73
2023-03-19T08:04:56.203Z,26.88
2023-03-19T08:05:58.142Z,26.32
2023-03-19T08:07:00.830Z,26.56
2023-03-19T08:08:02.787Z,26.61
2023-03-19T08:09:05.872Z,27.63
2023-03-19T08:10:08.885Z,28.12
2023-03-19T08:11:11.052Z,29.31
2023-03-19T08:12:14.124Z,28.82
2023-03-19T08:13:16.865Z,28.10
2023-03-19T08:17:35.294Z,27.74
2023-03-19T08:19:08.487Z,28.34
2023-03-19T08:23:30.695Z,27.74
2023-03-19T08:37:12.908Z,28.27
2023-03-19T08:38:57.540Z,28.65
2023-03-19T08:43:47.651Z,32.68
2023-03-19T08:49:05.736Z,34.73
2023-03-19T08:51:43.633Z,33.41
2023-03-19T08:53:51.286Z,31.70
2023-03-19T08:55:50.147Z,32.21
2023-03-19T09:01:49.862Z,32.65
2023-03-19T09:03:21.910Z,32.97
2023-03-19T09:04:38.558Z,33.37
2023-03-19T09:06:14.223Z,33.58
2023-03-19T09:09:14.676Z,33.83
2023-03-19T09:13:22.988Z,34.30
2023-03-19T09:16:19.239Z,33.99
2023-03-19T09:17:45.193Z,35.66
2023-03-19T09:18:51.524Z,34.42
2023-03-19T09:20:41.542Z,37.23
2023-03-19T09:22:28.792Z,36.55
2023-03-19T09:29:56.966Z,40.04
2023-03-19T09:31:27.237Z,38.45
2023-03-19T09:32:34.522Z,39.14
2023-03-19T09:33:50.101Z,38.85
2023-03-19T09:34:57.594Z,38.33
2023-03-19T09:36:08.818Z,39.04
2023-03-19T09:37:13.384Z,39.15
2023-03-19T09:38:20.681Z,39.50
2023-03-19T09:39:30.365Z,39.31
2023-03-19T09:43:02.003Z,39.92
2023-03-19T09:44:42.408Z,39.62
2023-03-19T09:45:47.122Z,40.11
2023-03-19T09:47:31.575Z,40.14
2023-03-19T09:48:58.058Z,40.52
2023-03-19T09:50:24.270Z,40.56
2023-03-19T09:51:59.055Z,41.08
2023-03-19T09:53:27.504Z,41.80
2023-03-19T09:58:20.816Z,43.47
2023-03-19T10:00:15.215Z,44.20
2023-03-19T10:01:51.591Z,44.99
2023-03-19T10:03:45.301Z,43.99
2023-03-19T10:05:28.462Z,45.58
2023-03-19T10:06:39.509Z,45.40
2023-03-19T10:08:06.119Z,46.63
2023-03-19T10:09:43.351Z,45.92
2023-03-19T10:11:17.618Z,46.88
2023-03-19T10:12:44.931Z,47.47
2023-03-19T10:14:39.266Z,45.98
2023-03-19T10:15:47.658Z,46.33
2023-03-19T10:17:05.877Z,46.15
2023-03-19T10:18:30.557Z,46.11
2023-03-19T10:20:04.396Z,45.95
2023-03-19T10:21:47.453Z,46.19
2023-03-19T10:23:09.243Z,47.17
2023-03-19T10:24:23.568Z,47.16
2023-03-19T10:25:41.781Z,47.08
2023-03-19T10:26:51.449Z,47.03
2023-03-19T10:28:08.032Z,46.97
2023-03-19T10:29:29.367Z,47.24
2023-03-19T10:30:38.577Z,47.09
2023-03-19T10:32:08.052Z,46.84
2023-03-19T10:33:26.780Z,46.85
2023-03-19T10:34:32.940Z,46.61
2023-03-19T10:35:57.896Z,47.30
2023-03-19T10:37:25.362Z,47.35
2023-03-19T10:38:32.581Z,46.87
2023-03-19T10:39:51.307Z,47.26
2023-03-19T10:41:33.186Z,47.97
2023-03-19T10:43:07.057Z,47.67
2023-03-19T10:44:37.721Z,48.17
2023-03-19T10:46:30.058Z,49.01
2023-03-19T10:47:38.747Z,48.48
2023-03-19T10:48:48.355Z,48.77
2023-03-19T10:50:07.401Z,48.91
2023-03-19T10:51:23.546Z,49.46
2023-03-19T10:52:34.158Z,50.04
2023-03-19T10:54:20.503Z,49.09
2023-03-19T10:55:30.485Z,50.01
2023-03-19T10:56:36.882Z,50.84
2023-03-19T10:57:45.119Z,50.73
2023-03-19T11:01:51.687Z,52.50
2023-03-19T11:06:43.053Z,53.23
2023-03-19T11:10:28.869Z,51.90
2023-03-19T11:14:14.071Z,54.09
2023-03-19T11:18:03.758Z,53.92
2023-03-19T11:19:24.854Z,52.99
2023-03-19T11:20:39.142Z,52.36
2023-03-19T11:21:46.143Z,53.16
2023-03-19T11:23:42.483Z,52.76
2023-03-19T11:34:57.560Z,54.50
2023-03-19T11:36:15.994Z,54.15
2023-03-19T11:37:43.909Z,54.77
2023-03-19T11:39:19.397Z,54.42
2023-03-19T11:41:11.005Z,54.66
2023-03-19T11:42:56.574Z,54.02
2023-03-19T11:44:24.129Z,54.00
2023-03-19T11:45:56.722Z,54.83
2023-03-19T11:48:21.362Z,54.82
2023-03-19T11:50:41.955Z,54.19
2023-03-19T11:52:52.041Z,54.16
2023-03-19T11:54:32.978Z,54.99
2023-03-19T11:56:24.112Z,54.05
2023-03-19T11:58:19.480Z,53.72
2023-03-19T12:00:14.765Z,54.79
2023-03-19T12:07:18.794Z,55.75
2023-03-19T12:09:15.652Z,55.58
2023-03-19T12:20:39.412Z,54.49
2023-03-19T12:22:27.823Z,53.85
2023-03-19T12:24:02.498Z,54.43
2023-03-19T12:25:43.444Z,55.54
2023-03-19T12:36:58.878Z,54.83
2023-03-19T12:38:40.454Z,55.53
2023-03-19T12:40:06.160Z,55.41
2023-03-19T12:41:47.013Z,54.91
2023-03-19T12:43:04.841Z,54.38
2023-03-19T12:45:07.530Z,54.26
2023-03-19T12:46:49.080Z,54.72
2023-03-19T12:48:11.533Z,55.12
2023-03-19T12:49:41.759Z,56.11
2023-03-19T12:51:24.779Z,56.02
2023-03-19T12:54:48.769Z,54.79
2023-03-19T12:56:38.845Z,55.59
2023-03-19T13:00:22.405Z,55.03
2023-03-19T13:01:29.145Z,55.17
2023-03-19T13:02:56.156Z,55.37
2023-03-19T13:04:14.275Z,55.58
2023-03-19T13:05:34.550Z,56.16
2023-03-19T13:06:57.879Z,56.86
2023-03-19T13:08:11.038Z,57.86
2023-03-19T13:12:21.901Z,57.29
2023-03-19T13:14:03.128Z,57.38
2023-03-19T13:15:36.594Z,57.20
2023-03-19T13:17:00.605Z,58.18
2023-03-19T13:19:08.820Z,57.74
2023-03-19T13:20:23.547Z,57.30
2023-03-19T13:21:36.422Z,57.07
2023-03-19T13:22:41.838Z,57.70
2023-03-19T13:23:50.790Z,57.31
2023-03-19T13:25:00.701Z,57.30
2023-03-19T13:26:10.564Z,57.61
2023-03-19T13:27:30.300Z,57.44
2023-03-19T13:28:36.366Z,57.79
2023-03-19T13:30:08.466Z,57.60
2023-03-19T13:31:27.643Z,57.68
2023-03-19T13:32:41.515Z,58.56
2023-03-19T13:34:09.707Z,58.37
2023-03-19T13:35:27.794Z,57.64
2023-03-19T13:36:39.928Z,57.87
2023-03-19T13:37:44.514Z,57.62
2023-03-19T13:38:56.619Z,57.52
2023-03-19T13:40:05.815Z,57.74
2023-03-19T13:41:33.260Z,57.75
2023-03-19T13:42:43.448Z,57.32
2023-03-19T13:43:54.242Z,57.48
2023-03-19T13:45:32.339Z,57.82
2023-03-19T13:46:41.820Z,58.01
2023-03-19T13:47:45.735Z,58.25
2023-03-19T13:48:53.766Z,57.62
2023-03-19T13:50:45.684Z,57.80
2023-03-19T13:52:05.306Z,57.77
2023-03-19T13:53:37.443Z,57.44
2023-03-19T13:54:46.161Z,58.14
2023-03-19T13:56:02.952Z,58.76
2023-03-19T13:57:18.468Z,58.81
2023-03-19T13:58:46.097Z,59.39
2023-03-19T13:59:51.019Z,59.76
2023-03-19T14:00:59.194Z,59.02
2023-03-19T14:02:27.350Z,58.72
2023-03-19T14:03:37.509Z,59.17
2023-03-19T14:04:54.169Z,59.22
2023-03-19T14:06:02.467Z,59.87
2023-03-19T14:07:23.153Z,59.26
2023-03-19T14:08:34.124Z,59.23
2023-03-19T14:10:02.586Z,59.36
2023-03-19T14:11:08.953Z,59.05
2023-03-19T14:12:22.582Z,58.98
2023-03-19T14:13:34.982Z,59.13
2023-03-19T14:15:20.538Z,59.61
2023-03-19T14:16:30.352Z,59.30
2023-03-19T14:18:04.259Z,59.31
2023-03-19T14:19:12.786Z,59.38
2023-03-19T14:20:24.699Z,58.70
2023-03-19T14:21:47.282Z,59.00
2023-03-19T14:22:59.038Z,59.50
2023-03-19T14:24:56.679Z,59.75
2023-03-19T14:26:27.603Z,59.90
2023-03-19T14:27:33.639Z,60.14
2023-03-19T14:28:46.306Z,60.57
2023-03-19T14:29:51.576Z,60.70
2023-03-19T14:30:58.555Z,60.64
2023-03-19T14:32:11.093Z,61.72
2023-03-19T14:33:30.138Z,62.32
2023-03-19T14:34:43.870Z,62.19
2023-03-19T14:35:49.131Z,61.50
2023-03-19T14:37:17.811Z,61.92
2023-03-19T14:38:38.180Z,62.39
2023-03-19T14:39:46.567Z,62.74
2023-03-19T14:40:53.763Z,62.62
2023-03-19T14:42:14.313Z,63.04
2023-03-19T14:43:28.622Z,64.20
2023-03-19T14:45:12.821Z,64.36
2023-03-19T14:46:24.544Z,62.86
2023-03-19T14:47:53.037Z,63.46
2023-03-19T14:49:21.167Z,64.04
2023-03-19T14:50:55.074Z,65.02
2023-03-19T14:52:26.043Z,64.96
2023-03-19T14:53:59.094Z,65.25
2023-03-19T14:55:03.929Z,65.28
2023-03-19T14:56:23.571Z,64.60
2023-03-19T14:57:37.008Z,64.68
2023-03-19T14:58:51.957Z,64.70
2023-03-19T14:59:55.142Z,64.54
2023-03-19T15:00:59.582Z,65.14
2023-03-19T15:05:59.772Z,65.92
2023-03-19T15:11:21.709Z,66.87
2023-03-19T15:12:46.397Z,66.99
2023-03-19T15:14:15.149Z,66.90
2023-03-19T15:15:28.595Z,67.01
2023-03-19T15:16:48.993Z,67.11
2023-03-19T15:18:04.138Z,67.56
2023-03-19T15:19:12.297Z,66.93
2023-03-19T15:20:29.132Z,66.93
2023-03-19T15:21:35.357Z,67.56
2023-03-19T15:22:38.654Z,67.79
2023-03-19T15:23:45.846Z,67.97
2023-03-19T15:24:53.530Z,67.79
2023-03-19T15:26:05.049Z,67.94
2023-03-19T15:27:23.536Z,67.80
2023-03-19T15:28:28.531Z,67.92
2023-03-19T15:29:37.841Z,68.08
2023-03-19T15:30:53.909Z,68.47
2023-03-19T15:32:05.301Z,69.37
2023-03-19T15:33:39.481Z,69.80
2023-03-19T15:35:05.724Z,70.08
2023-03-19T15:36:34.928Z,70.77
2023-03-19T15:37:51.193Z,70.71
2023-03-19T15:39:18.741Z,71.15
2023-03-19T15:40:34.408Z,71.46
2023-03-19T15:41:45.060Z,71.89
2023-03-19T15:43:01.500Z,72.22
2023-03-19T15:44:13.737Z,72.71
2023-03-19T15:45:24.639Z,73.36
2023-03-19T15:46:32.895Z,73.58
2023-03-19T15:47:47.859Z,73.66
2023-03-19T15:49:11.740Z,73.50
2023-03-19T15:50:22.279Z,73.61
2023-03-19T15:51:28.852Z,73.23
2023-03-19T15:52:41.686Z,73.14
2023-03-19T15:53:52.948Z,73.24
2023-03-19T15:55:05.427Z,74.15
2023-03-19T15:56:15.924Z,74.01
2023-03-19T15:57:34.364Z,74.69
2023-03-19T15:58:42.048Z,74.51
2023-03-19T15:59:47.888Z,74.00
2023-03-19T16:00:59.771Z,74.39
2023-03-19T16:02:29.740Z,74.79
2023-03-19T16:03:42.701Z,74.71
2023-03-19T16:25:30.445Z,79.20
2023-03-19T16:26:48.304Z,78.93
2023-03-19T16:27:52.496Z,78.66
2023-03-19T16:29:05.936Z,78.84
2023-03-19T16:30:22.734Z,79.60
2023-03-19T16:31:32.216Z,79.55
2023-03-19T16:32:37.221Z,78.51
2023-03-19T16:33:39.166Z,78.78
2023-03-19T16:34:49.548Z,78.99
2023-03-19T16:35:54.135Z,79.58
2023-03-19T16:37:00.297Z,80.09
2023-03-19T16:38:43.732Z,81.14
2023-03-19T16:39:57.231Z,82.13
2023-03-19T16:41:14.548Z,81.71
2023-03-19T16:42:37.125Z,81.44
2023-03-19T16:43:46.406Z,81.55
2023-03-19T16:44:50.451Z,81.88
2023-03-19T16:46:09.689Z,82.00
2023-03-19T16:47:18.352Z,81.08
2023-03-19T16:48:30.718Z,80.82
2023-03-19T16:49:42.755Z,80.52
2023-03-19T16:50:48.732Z,80.55
2023-03-19T16:51:55.386Z,80.30
2023-03-19T16:53:16.977Z,81.19
2023-03-19T16:54:36.347Z,81.34
2023-03-19T16:55:41.512Z,81.13
2023-03-19T16:56:43.675Z,80.78
2023-03-19T16:57:49.032Z,80.20
2023-03-19T16:58:56.714Z,80.75
2023-03-19T16:59:59.194Z,80.53
2023-03-19T17:01:02.142Z,80.29
2023-03-19T17:02:16.837Z,80.53
2023-03-19T17:03:21.468Z,80.78
2023-03-19T17:04:25.880Z,80.12
2023-03-19T17:05:35.549Z,80.11
2023-03-19T17:06:38.132Z,80.22
2023-03-19T17:07:52.794Z,80.81
2023-03-19T17:10:31.793Z,80.87
2023-03-19T17:11:42.469Z,81.35
2023-03-19T17:12:46.891Z,81.34
2023-03-19T17:13:49.349Z,81.52
2023-03-19T17:14:52.785Z,81.75
2023-03-19T17:15:57.418Z,82.29
2023-03-19T17:16:59.453Z,82.27
2023-03-19T17:18:04.063Z,82.96
2023-03-19T17:19:18.362Z,82.80
2023-03-19T17:20:44.681Z,83.37
2023-03-19T17:21:50.803Z,83.48
2023-03-19T17:23:01.546Z,83.52
2023-03-19T17:32:07.098Z,87.11
2023-03-19T17:33:37.421Z,86.65
